EAG5508 SBGR-SBRF
Flight info
| Callsign | EAG5508 |
|---|---|
| Flight time | N/A |
| Altitude | 39000 |
| Route | VUMEV UZ14 AKPAS DCT ANBEX |
| Aircraft | A359/H-SDE2E3GHIJ3J4J5LM1ORWXY/LB1D1 |
Departure
| Time | 2026-05-06 20:35 |
|---|---|
| Airport | São Paulo/Guarulhos–Governor André Franco Montoro International Airport (SBGR) |
Arrival
| Time | N/A |
|---|---|
| Airport | Recife/Guararapes - Gilberto Freyre International Airport (SBRF) |
| Time | Latitude | Longitude | Altitude | Speed | Heading |
|---|---|---|---|---|---|
| 2026-05-06 19:44 | -23.42830 | -46.47377 | 2474 ft | 0 kts | 73° |
| 2026-05-06 20:26 | -23.42837 | -46.47403 | 2479 ft | 4 kts | 73° |
| 2026-05-06 20:26 | -23.42845 | -46.47431 | 2476 ft | 4 kts | 73° |
| 2026-05-06 20:26 | -23.42853 | -46.47457 | 2478 ft | 2 kts | 72° |
| 2026-05-06 20:26 | -23.42856 | -46.47481 | 2476 ft | 4 kts | 120° |
| 2026-05-06 20:27 | -23.42837 | -46.47497 | 2474 ft | 4 kts | 164° |
| 2026-05-06 20:27 | -23.42819 | -46.47502 | 2479 ft | 1 kts | 165° |
| 2026-05-06 20:27 | -23.42817 | -46.47503 | 2478 ft | 0 kts | 165° |
| 2026-05-06 20:30 | -23.42888 | -46.47482 | 2474 ft | 16 kts | 165° |
| 2026-05-06 20:31 | -23.42996 | -46.47462 | 2474 ft | 15 kts | 207° |
| 2026-05-06 20:31 | -23.43036 | -46.47557 | 2474 ft | 15 kts | 249° |
| 2026-05-06 20:31 | -23.43074 | -46.47669 | 2476 ft | 17 kts | 251° |
| 2026-05-06 20:31 | -23.43109 | -46.47793 | 2475 ft | 18 kts | 254° |
| 2026-05-06 20:32 | -23.43145 | -46.47926 | 2477 ft | 19 kts | 253° |
| 2026-05-06 20:32 | -23.43184 | -46.48068 | 2477 ft | 20 kts | 254° |
| 2026-05-06 20:32 | -23.43223 | -46.48216 | 2475 ft | 19 kts | 254° |
| 2026-05-06 20:32 | -23.43263 | -46.48318 | 2475 ft | 14 kts | 232° |
| 2026-05-06 20:33 | -23.43363 | -46.48346 | 2476 ft | 16 kts | 167° |
| 2026-05-06 20:33 | -23.43421 | -46.48268 | 2475 ft | 9 kts | 78° |
| 2026-05-06 20:33 | -23.43398 | -46.48215 | 2476 ft | 8 kts | 71° |
| 2026-05-06 20:33 | -23.43397 | -46.48211 | 2476 ft | 0 kts | 71° |
| 2026-05-06 20:34 | -23.43393 | -46.48199 | 2476 ft | 16 kts | 71° |
| 2026-05-06 20:34 | -23.43298 | -46.47846 | 2476 ft | 80 kts | 73° |
| 2026-05-06 20:34 | -23.43085 | -46.47064 | 2476 ft | 134 kts | 73° |
| 2026-05-06 20:35 | -23.42780 | -46.45934 | 2570 ft | 171 kts | 73° |
| 2026-05-06 20:35 | -23.42451 | -46.44708 | 3259 ft | 166 kts | 75° |
| 2026-05-06 20:35 | -23.42077 | -46.43517 | 3892 ft | 167 kts | 66° |
| 2026-05-06 20:35 | -23.41656 | -46.42270 | 4221 ft | 186 kts | 73° |
| 2026-05-06 20:36 | -23.41258 | -46.40855 | 4441 ft | 211 kts | 73° |
| 2026-05-06 20:36 | -23.40807 | -46.39231 | 4651 ft | 237 kts | 73° |
| 2026-05-06 20:36 | -23.40299 | -46.37439 | 5005 ft | 255 kts | 73° |
| 2026-05-06 20:36 | -23.39610 | -46.35638 | 5659 ft | 261 kts | 61° |
| 2026-05-06 20:37 | -23.38666 | -46.33927 | 6339 ft | 266 kts | 58° |
| 2026-05-06 20:37 | -23.37663 | -46.32213 | 7053 ft | 271 kts | 57° |
| 2026-05-06 20:37 | -23.36645 | -46.30476 | 7814 ft | 273 kts | 57° |
| 2026-05-06 20:37 | -23.35620 | -46.28720 | 8622 ft | 277 kts | 57° |
| 2026-05-06 20:38 | -23.34594 | -46.26956 | 9416 ft | 281 kts | 57° |
| 2026-05-06 20:38 | -23.33543 | -46.25146 | 10217 ft | 285 kts | 56° |
| 2026-05-06 20:38 | -23.32458 | -46.23277 | 10678 ft | 302 kts | 57° |
| 2026-05-06 20:38 | -23.31295 | -46.21275 | 10974 ft | 323 kts | 57° |
| 2026-05-06 20:39 | -23.30063 | -46.19153 | 11328 ft | 339 kts | 57° |
| 2026-05-06 20:39 | -23.28792 | -46.16963 | 11916 ft | 346 kts | 58° |
| 2026-05-06 20:39 | -23.27497 | -46.14731 | 12533 ft | 352 kts | 58° |
| 2026-05-06 20:39 | -23.26179 | -46.12462 | 13161 ft | 357 kts | 58° |
| 2026-05-06 20:40 | -23.24848 | -46.10170 | 13798 ft | 361 kts | 58° |
| 2026-05-06 20:40 | -23.23517 | -46.07880 | 14352 ft | 365 kts | 59° |
| 2026-05-06 20:40 | -23.22144 | -46.05691 | 14846 ft | 371 kts | 52° |